sensor_id;sensor_type;location;lat;lon;timestamp;temperature;humidity
8947;DHT22;4508;48.790;9.028;2023-01-10T00:01:31;4.20;99.90
8947;DHT22;4508;48.790;9.028;2023-01-10T00:03:58;4.20;99.90
8947;DHT22;4508;48.790;9.028;2023-01-10T00:06:25;4.20;99.90
8947;DHT22;4508;48.790;9.028;2023-01-10T00:08:51;4.20;99.90
8947;DHT22;4508;48.790;9.028;2023-01-10T00:11:18;4.20;99.90
8947;DHT22;4508;48.790;9.028;2023-01-10T00:14:04;4.20;99.90
8947;DHT22;4508;48.790;9.028;2023-01-10T00:16:30;4.20;99.90
8947;DHT22;4508;48.790;9.028;2023-01-10T00:18:57;4.30;99.90
8947;DHT22;4508;48.790;9.028;2023-01-10T00:21:24;4.20;99.90
8947;DHT22;4508;48.790;9.028;2023-01-10T00:23:50;4.20;99.90
8947;DHT22;4508;48.790;9.028;2023-01-10T00:26:17;4.20;99.90
8947;DHT22;4508;48.790;9.028;2023-01-10T00:28:44;4.20;99.90
8947;DHT22;4508;48.790;9.028;2023-01-10T00:31:12;4.20;99.90
8947;DHT22;4508;48.790;9.028;2023-01-10T00:33:40;4.10;99.90
8947;DHT22;4508;48.790;9.028;2023-01-10T00:36:09;4.10;99.90
8947;DHT22;4508;48.790;9.028;2023-01-10T00:38:36;4.20;99.90
8947;DHT22;4508;48.790;9.028;2023-01-10T00:41:03;4.20;99.90
8947;DHT22;4508;48.790;9.028;2023-01-10T00:43:51;4.20;99.90
8947;DHT22;4508;48.790;9.028;2023-01-10T00:46:23;4.20;99.90
8947;DHT22;4508;48.790;9.028;2023-01-10T00:48:50;4.20;99.90
8947;DHT22;4508;48.790;9.028;2023-01-10T00:51:18;4.10;99.90
8947;DHT22;4508;48.790;9.028;2023-01-10T00:53:44;4.20;99.90
8947;DHT22;4508;48.790;9.028;2023-01-10T00:56:11;4.10;99.90
8947;DHT22;4508;48.790;9.028;2023-01-10T00:58:38;4.20;99.90
8947;DHT22;4508;48.790;9.028;2023-01-10T01:01:04;4.20;99.90
8947;DHT22;4508;48.790;9.028;2023-01-10T01:03:32;4.20;99.90
8947;DHT22;4508;48.790;9.028;2023-01-10T01:06:03;4.20;99.90
8947;DHT22;4508;48.790;9.028;2023-01-10T01:08:30;4.30;99.90
8947;DHT22;4508;48.790;9.028;2023-01-10T01:10:56;4.20;99.90
8947;DHT22;4508;48.790;9.028;2023-01-10T01:13:23;4.20;99.90
8947;DHT22;4508;48.790;9.028;2023-01-10T01:15:50;4.20;99.90
8947;DHT22;4508;48.790;9.028;2023-01-10T01:18:20;4.20;99.90
8947;DHT22;4508;48.790;9.028;2023-01-10T01:20:51;4.20;99.90
8947;DHT22;4508;48.790;9.028;2023-01-10T01:23:19;4.20;99.90
8947;DHT22;4508;48.790;9.028;2023-01-10T01:25:49;4.20;99.90
8947;DHT22;4508;48.790;9.028;2023-01-10T01:28:16;4.30;99.90
8947;DHT22;4508;48.790;9.028;2023-01-10T01:30:42;4.20;99.90
8947;DHT22;4508;48.790;9.028;2023-01-10T01:33:09;4.10;99.90
8947;DHT22;4508;48.790;9.028;2023-01-10T01:35:36;4.10;99.90
8947;DHT22;4508;48.790;9.028;2023-01-10T01:38:04;4.20;99.90
8947;DHT22;4508;48.790;9.028;2023-01-10T01:40:31;4.20;99.90
8947;DHT22;4508;48.790;9.028;2023-01-10T01:42:57;4.20;99.90
8947;DHT22;4508;48.790;9.028;2023-01-10T01:45:36;4.10;99.90
8947;DHT22;4508;48.790;9.028;2023-01-10T01:48:14;4.20;99.90
8947;DHT22;4508;48.790;9.028;2023-01-10T01:50:48;4.10;99.90
8947;DHT22;4508;48.790;9.028;2023-01-10T01:53:21;4.10;99.90
8947;DHT22;4508;48.790;9.028;2023-01-10T01:55:50;4.10;99.90
8947;DHT22;4508;48.790;9.028;2023-01-10T01:58:23;4.10;99.90
8947;DHT22;4508;48.790;9.028;2023-01-10T02:00:52;4.10;99.90
8947;DHT22;4508;48.790;9.028;2023-01-10T02:03:19;4.10;99.90
8947;DHT22;4508;48.790;9.028;2023-01-10T02:05:45;4.10;99.90
8947;DHT22;4508;48.790;9.028;2023-01-10T02:08:13;4.00;99.90
8947;DHT22;4508;48.790;9.028;2023-01-10T02:10:46;4.10;99.90
8947;DHT22;4508;48.790;9.028;2023-01-10T02:13:19;4.00;99.90
8947;DHT22;4508;48.790;9.028;2023-01-10T02:15:47;3.90;99.90
8947;DHT22;4508;48.790;9.028;2023-01-10T02:18:14;4.00;99.90
8947;DHT22;4508;48.790;9.028;2023-01-10T02:27:00;3.90;99.90
8947;DHT22;4508;48.790;9.028;2023-01-10T02:29:55;3.90;99.90
8947;DHT22;4508;48.790;9.028;2023-01-10T02:32:34;3.90;99.90
8947;DHT22;4508;48.790;9.028;2023-01-10T02:35:20;3.80;99.90
8947;DHT22;4508;48.790;9.028;2023-01-10T02:37:56;3.70;99.90
8947;DHT22;4508;48.790;9.028;2023-01-10T02:40:31;3.70;99.90
8947;DHT22;4508;48.790;9.028;2023-01-10T02:43:02;3.70;99.90
8947;DHT22;4508;48.790;9.028;2023-01-10T02:45:35;3.60;99.90
8947;DHT22;4508;48.790;9.028;2023-01-10T02:48:05;3.60;99.90
8947;DHT22;4508;48.790;9.028;2023-01-10T02:50:53;3.60;99.90
8947;DHT22;4508;48.790;9.028;2023-01-10T02:53:23;3.60;99.90
8947;DHT22;4508;48.790;9.028;2023-01-10T02:56:03;3.60;99.90
8947;DHT22;4508;48.790;9.028;2023-01-10T02:58:44;3.60;99.90
8947;DHT22;4508;48.790;9.028;2023-01-10T03:01:19;3.60;99.90
8947;DHT22;4508;48.790;9.028;2023-01-10T03:03:53;3.60;99.90
8947;DHT22;4508;48.790;9.028;2023-01-10T03:06:32;3.60;99.90
8947;DHT22;4508;48.790;9.028;2023-01-10T03:09:04;3.60;99.90
8947;DHT22;4508;48.790;9.028;2023-01-10T03:11:34;3.60;99.90
8947;DHT22;4508;48.790;9.028;2023-01-10T03:14:13;3.50;99.90
8947;DHT22;4508;48.790;9.028;2023-01-10T03:16:44;3.60;99.90
8947;DHT22;4508;48.790;9.028;2023-01-10T03:19:15;3.60;99.90
8947;DHT22;4508;48.790;9.028;2023-01-10T03:21:43;3.60;99.90
8947;DHT22;4508;48.790;9.028;2023-01-10T03:24:14;3.60;99.90
8947;DHT22;4508;48.790;9.028;2023-01-10T03:26:46;3.60;99.90
8947;DHT22;4508;48.790;9.028;2023-01-10T03:29:18;3.60;99.90
8947;DHT22;4508;48.790;9.028;2023-01-10T03:31:50;3.60;99.90
8947;DHT22;4508;48.790;9.028;2023-01-10T03:34:20;3.60;99.90
8947;DHT22;4508;48.790;9.028;2023-01-10T03:36:53;3.70;99.90
8947;DHT22;4508;48.790;9.028;2023-01-10T03:39:30;3.60;99.90
8947;DHT22;4508;48.790;9.028;2023-01-10T03:42:06;3.70;99.90
8947;DHT22;4508;48.790;9.028;2023-01-10T03:44:39;3.70;99.90
8947;DHT22;4508;48.790;9.028;2023-01-10T03:47:14;3.50;99.90
8947;DHT22;4508;48.790;9.028;2023-01-10T03:49:48;3.70;99.90
8947;DHT22;4508;48.790;9.028;2023-01-10T03:52:17;3.60;99.90
8947;DHT22;4508;48.790;9.028;2023-01-10T03:54:46;3.70;99.90
8947;DHT22;4508;48.790;9.028;2023-01-10T03:57:17;3.60;99.90
8947;DHT22;4508;48.790;9.028;2023-01-10T03:59:45;3.70;99.90
8947;DHT22;4508;48.790;9.028;2023-01-10T04:02:12;3.60;99.90
8947;DHT22;4508;48.790;9.028;2023-01-10T04:04:39;3.70;99.90
8947;DHT22;4508;48.790;9.028;2023-01-10T04:07:07;3.60;99.90
8947;DHT22;4508;48.790;9.028;2023-01-10T04:09:34;3.70;99.90
8947;DHT22;4508;48.790;9.028;2023-01-10T04:12:00;3.60;99.90
8947;DHT22;4508;48.790;9.028;2023-01-10T04:14:27;3.60;99.90
8947;DHT22;4508;48.790;9.028;2023-01-10T04:16:54;3.60;99.90
8947;DHT22;4508;48.790;9.028;2023-01-10T04:19:21;3.60;99.90
8947;DHT22;4508;48.790;9.028;2023-01-10T04:21:47;3.60;99.90
8947;DHT22;4508;48.790;9.028;2023-01-10T04:24:15;3.60;99.90
8947;DHT22;4508;48.790;9.028;2023-01-10T04:26:42;3.50;99.90
8947;DHT22;4508;48.790;9.028;2023-01-10T04:29:09;3.50;99.90
8947;DHT22;4508;48.790;9.028;2023-01-10T04:31:36;3.50;99.90
8947;DHT22;4508;48.790;9.028;2023-01-10T04:34:04;3.40;99.90
8947;DHT22;4508;48.790;9.028;2023-01-10T04:36:31;3.40;99.90
8947;DHT22;4508;48.790;9.028;2023-01-10T04:38:58;3.40;99.90
8947;DHT22;4508;48.790;9.028;2023-01-10T04:41:26;3.50;99.90
8947;DHT22;4508;48.790;9.028;2023-01-10T04:43:52;3.50;99.90
8947;DHT22;4508;48.790;9.028;2023-01-10T04:46:19;3.40;99.90
8947;DHT22;4508;48.790;9.028;2023-01-10T04:48:46;3.40;99.90
8947;DHT22;4508;48.790;9.028;2023-01-10T04:51:12;3.30;99.90
8947;DHT22;4508;48.790;9.028;2023-01-10T04:53:39;3.40;99.90
8947;DHT22;4508;48.790;9.028;2023-01-10T04:56:08;3.40;99.90
8947;DHT22;4508;48.790;9.028;2023-01-10T04:58:36;3.40;99.90
8947;DHT22;4508;48.790;9.028;2023-01-10T05:01:07;3.40;99.90
8947;DHT22;4508;48.790;9.028;2023-01-10T05:03:34;3.40;99.90
8947;DHT22;4508;48.790;9.028;2023-01-10T05:06:01;3.50;99.90
8947;DHT22;4508;48.790;9.028;2023-01-10T05:08:27;3.50;99.90
8947;DHT22;4508;48.790;9.028;2023-01-10T05:10:54;3.50;99.90
8947;DHT22;4508;48.790;9.028;2023-01-10T05:13:21;3.50;99.90
8947;DHT22;4508;48.790;9.028;2023-01-10T05:15:52;3.50;99.90
8947;DHT22;4508;48.790;9.028;2023-01-10T05:18:19;3.50;99.90
8947;DHT22;4508;48.790;9.028;2023-01-10T05:20:46;3.50;99.90
8947;DHT22;4508;48.790;9.028;2023-01-10T05:23:12;3.50;99.90
8947;DHT22;4508;48.790;9.028;2023-01-10T05:25:39;3.50;99.90
8947;DHT22;4508;48.790;9.028;2023-01-10T05:28:05;3.50;99.90
8947;DHT22;4508;48.790;9.028;2023-01-10T05:30:32;3.50;99.90
8947;DHT22;4508;48.790;9.028;2023-01-10T05:33:02;3.50;99.90
8947;DHT22;4508;48.790;9.028;2023-01-10T05:35:29;3.50;99.90
8947;DHT22;4508;48.790;9.028;2023-01-10T05:37:56;3.60;99.90
8947;DHT22;4508;48.790;9.028;2023-01-10T05:40:22;3.60;99.90
8947;DHT22;4508;48.790;9.028;2023-01-10T05:42:49;3.60;99.90
8947;DHT22;4508;48.790;9.028;2023-01-10T05:45:16;3.50;99.90
8947;DHT22;4508;48.790;9.028;2023-01-10T05:47:42;3.50;99.90
8947;DHT22;4508;48.790;9.028;2023-01-10T05:50:11;3.60;99.90
8947;DHT22;4508;48.790;9.028;2023-01-10T05:52:38;3.60;99.90
8947;DHT22;4508;48.790;9.028;2023-01-10T05:55:05;3.50;99.90
8947;DHT22;4508;48.790;9.028;2023-01-10T05:57:32;3.50;99.90
8947;DHT22;4508;48.790;9.028;2023-01-10T05:59:58;3.60;99.90
8947;DHT22;4508;48.790;9.028;2023-01-10T06:02:25;3.60;99.90
8947;DHT22;4508;48.790;9.028;2023-01-10T06:04:52;3.60;99.90
8947;DHT22;4508;48.790;9.028;2023-01-10T06:07:21;3.60;99.90
8947;DHT22;4508;48.790;9.028;2023-01-10T06:09:48;3.60;99.90
8947;DHT22;4508;48.790;9.028;2023-01-10T06:12:15;3.60;99.90
8947;DHT22;4508;48.790;9.028;2023-01-10T06:14:43;3.60;99.90
8947;DHT22;4508;48.790;9.028;2023-01-10T06:17:09;3.60;99.90
8947;DHT22;4508;48.790;9.028;2023-01-10T06:19:36;3.60;99.90
8947;DHT22;4508;48.790;9.028;2023-01-10T06:22:03;3.60;99.90
8947;DHT22;4508;48.790;9.028;2023-01-10T06:24:32;3.60;99.90
8947;DHT22;4508;48.790;9.028;2023-01-10T06:26:58;3.60;99.90
8947;DHT22;4508;48.790;9.028;2023-01-10T06:29:25;3.60;99.90
8947;DHT22;4508;48.790;9.028;2023-01-10T06:31:52;3.60;99.90
8947;DHT22;4508;48.790;9.028;2023-01-10T06:34:18;3.60;99.90
8947;DHT22;4508;48.790;9.028;2023-01-10T06:36:45;3.70;99.90
8947;DHT22;4508;48.790;9.028;2023-01-10T06:39:12;3.70;99.90
8947;DHT22;4508;48.790;9.028;2023-01-10T06:41:39;3.70;99.90
8947;DHT22;4508;48.790;9.028;2023-01-10T06:44:06;3.60;99.90
8947;DHT22;4508;48.790;9.028;2023-01-10T06:46:33;3.60;99.90
8947;DHT22;4508;48.790;9.028;2023-01-10T06:49:00;3.60;99.90
8947;DHT22;4508;48.790;9.028;2023-01-10T06:51:27;3.60;99.90
8947;DHT22;4508;48.790;9.028;2023-01-10T06:53:53;3.60;99.90
8947;DHT22;4508;48.790;9.028;2023-01-10T06:56:20;3.60;99.90
8947;DHT22;4508;48.790;9.028;2023-01-10T06:58:49;3.60;99.90
8947;DHT22;4508;48.790;9.028;2023-01-10T07:01:17;3.70;99.90
8947;DHT22;4508;48.790;9.028;2023-01-10T07:03:44;3.70;99.90
8947;DHT22;4508;48.790;9.028;2023-01-10T07:06:12;3.70;99.90
8947;DHT22;4508;48.790;9.028;2023-01-10T07:08:40;3.60;99.90
8947;DHT22;4508;48.790;9.028;2023-01-10T07:11:08;3.70;99.90
8947;DHT22;4508;48.790;9.028;2023-01-10T07:13:35;3.60;99.90
8947;DHT22;4508;48.790;9.028;2023-01-10T07:16:05;3.60;99.90
8947;DHT22;4508;48.790;9.028;2023-01-10T07:18:33;3.70;99.90
8947;DHT22;4508;48.790;9.028;2023-01-10T07:21:00;3.60;99.90
8947;DHT22;4508;48.790;9.028;2023-01-10T07:23:27;3.70;99.90
8947;DHT22;4508;48.790;9.028;2023-01-10T07:25:55;3.60;99.90
8947;DHT22;4508;48.790;9.028;2023-01-10T07:28:22;3.60;99.90
8947;DHT22;4508;48.790;9.028;2023-01-10T07:30:48;3.70;99.90
8947;DHT22;4508;48.790;9.028;2023-01-10T07:33:16;3.70;99.90
8947;DHT22;4508;48.790;9.028;2023-01-10T07:35:43;3.70;99.90
8947;DHT22;4508;48.790;9.028;2023-01-10T07:38:10;3.70;99.90
8947;DHT22;4508;48.790;9.028;2023-01-10T07:40:36;3.60;99.90
8947;DHT22;4508;48.790;9.028;2023-01-10T07:43:03;3.70;99.90
8947;DHT22;4508;48.790;9.028;2023-01-10T07:45:30;3.70;99.90
8947;DHT22;4508;48.790;9.028;2023-01-10T07:47:57;3.70;99.90
8947;DHT22;4508;48.790;9.028;2023-01-10T07:50:27;3.80;99.90
8947;DHT22;4508;48.790;9.028;2023-01-10T07:52:54;3.80;99.90
8947;DHT22;4508;48.790;9.028;2023-01-10T07:55:22;3.70;99.90
8947;DHT22;4508;48.790;9.028;2023-01-10T07:57:49;3.80;99.90
8947;DHT22;4508;48.790;9.028;2023-01-10T08:00:16;3.80;99.90
8947;DHT22;4508;48.790;9.028;2023-01-10T08:02:43;3.80;99.90
8947;DHT22;4508;48.790;9.028;2023-01-10T08:05:10;3.80;99.90
8947;DHT22;4508;48.790;9.028;2023-01-10T08:07:38;3.80;99.90
8947;DHT22;4508;48.790;9.028;2023-01-10T08:10:06;3.80;99.90
8947;DHT22;4508;48.790;9.028;2023-01-10T08:12:33;3.90;99.90
8947;DHT22;4508;48.790;9.028;2023-01-10T08:15:00;3.90;99.90
8947;DHT22;4508;48.790;9.028;2023-01-10T08:17:26;4.00;99.90
8947;DHT22;4508;48.790;9.028;2023-01-10T08:19:53;3.90;99.90
8947;DHT22;4508;48.790;9.028;2023-01-10T08:22:20;4.00;99.90
8947;DHT22;4508;48.790;9.028;2023-01-10T08:24:48;4.00;99.90
8947;DHT22;4508;48.790;9.028;2023-01-10T08:27:14;4.00;99.90
8947;DHT22;4508;48.790;9.028;2023-01-10T08:29:41;4.00;99.90
8947;DHT22;4508;48.790;9.028;2023-01-10T08:32:08;4.20;99.90
8947;DHT22;4508;48.790;9.028;2023-01-10T08:34:34;4.30;99.90
8947;DHT22;4508;48.790;9.028;2023-01-10T08:37:01;4.40;99.90
8947;DHT22;4508;48.790;9.028;2023-01-10T08:39:29;4.30;99.90
8947;DHT22;4508;48.790;9.028;2023-01-10T08:41:57;4.30;99.90
8947;DHT22;4508;48.790;9.028;2023-01-10T08:44:23;4.30;99.90
8947;DHT22;4508;48.790;9.028;2023-01-10T08:46:51;4.40;99.90
8947;DHT22;4508;48.790;9.028;2023-01-10T08:49:17;4.30;99.90
8947;DHT22;4508;48.790;9.028;2023-01-10T08:51:44;4.30;99.90
8947;DHT22;4508;48.790;9.028;2023-01-10T08:54:11;4.40;99.90
8947;DHT22;4508;48.790;9.028;2023-01-10T08:56:37;4.40;99.90
8947;DHT22;4508;48.790;9.028;2023-01-10T08:59:06;4.40;99.90
8947;DHT22;4508;48.790;9.028;2023-01-10T09:01:33;4.40;99.90
8947;DHT22;4508;48.790;9.028;2023-01-10T09:03:59;4.50;99.90
8947;DHT22;4508;48.790;9.028;2023-01-10T09:06:26;4.40;99.90
8947;DHT22;4508;48.790;9.028;2023-01-10T09:08:53;4.50;99.90
8947;DHT22;4508;48.790;9.028;2023-01-10T09:11:20;4.40;99.90
8947;DHT22;4508;48.790;9.028;2023-01-10T09:13:48;4.50;99.90
8947;DHT22;4508;48.790;9.028;2023-01-10T09:16:16;4.50;99.90
8947;DHT22;4508;48.790;9.028;2023-01-10T09:18:42;4.40;99.90
8947;DHT22;4508;48.790;9.028;2023-01-10T09:21:09;4.50;99.90
8947;DHT22;4508;48.790;9.028;2023-01-10T09:23:36;4.30;99.90
8947;DHT22;4508;48.790;9.028;2023-01-10T09:26:05;4.30;99.90
8947;DHT22;4508;48.790;9.028;2023-01-10T09:28:32;4.50;99.90
8947;DHT22;4508;48.790;9.028;2023-01-10T09:30:58;4.60;99.90
8947;DHT22;4508;48.790;9.028;2023-01-10T09:33:29;4.70;99.90
8947;DHT22;4508;48.790;9.028;2023-01-10T09:35:57;4.60;99.90
8947;DHT22;4508;48.790;9.028;2023-01-10T09:38:24;4.80;99.90
8947;DHT22;4508;48.790;9.028;2023-01-10T09:41:17;4.90;99.90
8947;DHT22;4508;48.790;9.028;2023-01-10T09:43:58;4.80;99.90
8947;DHT22;4508;48.790;9.028;2023-01-10T09:46:36;4.70;99.90
8947;DHT22;4508;48.790;9.028;2023-01-10T09:49:18;4.60;99.90
8947;DHT22;4508;48.790;9.028;2023-01-10T09:51:49;4.50;99.90
8947;DHT22;4508;48.790;9.028;2023-01-10T09:54:18;4.60;99.90
8947;DHT22;4508;48.790;9.028;2023-01-10T09:56:46;4.60;99.90
8947;DHT22;4508;48.790;9.028;2023-01-10T09:59:16;4.60;99.90
8947;DHT22;4508;48.790;9.028;2023-01-10T10:01:45;4.70;99.90
8947;DHT22;4508;48.790;9.028;2023-01-10T10:04:21;5.50;99.90
8947;DHT22;4508;48.790;9.028;2023-01-10T10:06:49;5.90;99.90
8947;DHT22;4508;48.790;9.028;2023-01-10T10:09:20;6.30;99.90
8947;DHT22;4508;48.790;9.028;2023-01-10T10:12:05;5.80;99.90
8947;DHT22;4508;48.790;9.028;2023-01-10T10:14:43;5.60;99.90
8947;DHT22;4508;48.790;9.028;2023-01-10T10:17:31;5.50;99.90
8947;DHT22;4508;48.790;9.028;2023-01-10T10:20:13;5.30;99.90
8947;DHT22;4508;48.790;9.028;2023-01-10T10:22:49;5.40;99.90
8947;DHT22;4508;48.790;9.028;2023-01-10T10:25:37;5.30;99.90
8947;DHT22;4508;48.790;9.028;2023-01-10T10:28:19;5.10;99.90
8947;DHT22;4508;48.790;9.028;2023-01-10T10:30:52;5.30;99.90
8947;DHT22;4508;48.790;9.028;2023-01-10T10:33:32;5.80;99.90
8947;DHT22;4508;48.790;9.028;2023-01-10T10:36:06;5.60;99.90
8947;DHT22;4508;48.790;9.028;2023-01-10T10:38:37;5.50;99.90
8947;DHT22;4508;48.790;9.028;2023-01-10T10:41:14;5.50;99.90
8947;DHT22;4508;48.790;9.028;2023-01-10T10:43:45;5.70;99.90
8947;DHT22;4508;48.790;9.028;2023-01-10T10:46:14;5.90;99.90
8947;DHT22;4508;48.790;9.028;2023-01-10T10:48:48;5.90;99.90
8947;DHT22;4508;48.790;9.028;2023-01-10T10:51:20;5.80;99.90
8947;DHT22;4508;48.790;9.028;2023-01-10T10:53:49;5.70;99.90
8947;DHT22;4508;48.790;9.028;2023-01-10T10:56:19;5.70;99.90
8947;DHT22;4508;48.790;9.028;2023-01-10T10:58:49;5.80;99.90
8947;DHT22;4508;48.790;9.028;2023-01-10T11:01:18;6.70;99.90
8947;DHT22;4508;48.790;9.028;2023-01-10T11:03:47;6.10;99.90
8947;DHT22;4508;48.790;9.028;2023-01-10T11:06:17;5.90;99.90
8947;DHT22;4508;48.790;9.028;2023-01-10T11:08:47;5.80;99.90
8947;DHT22;4508;48.790;9.028;2023-01-10T11:11:19;6.10;99.90
8947;DHT22;4508;48.790;9.028;2023-01-10T11:13:52;7.40;99.90
8947;DHT22;4508;48.790;9.028;2023-01-10T11:16:25;6.80;99.90
8947;DHT22;4508;48.790;9.028;2023-01-10T11:19:15;6.90;99.90
8947;DHT22;4508;48.790;9.028;2023-01-10T11:21:47;6.40;99.90
8947;DHT22;4508;48.790;9.028;2023-01-10T11:24:27;6.40;99.90
8947;DHT22;4508;48.790;9.028;2023-01-10T11:26:54;6.30;99.90
8947;DHT22;4508;48.790;9.028;2023-01-10T11:29:25;6.20;99.90
8947;DHT22;4508;48.790;9.028;2023-01-10T11:31:54;6.10;99.90
8947;DHT22;4508;48.790;9.028;2023-01-10T11:34:24;6.10;99.90
8947;DHT22;4508;48.790;9.028;2023-01-10T11:36:54;5.90;99.90
8947;DHT22;4508;48.790;9.028;2023-01-10T11:39:21;5.80;99.90
8947;DHT22;4508;48.790;9.028;2023-01-10T11:41:48;5.90;99.90
8947;DHT22;4508;48.790;9.028;2023-01-10T11:44:21;5.80;99.90
8947;DHT22;4508;48.790;9.028;2023-01-10T11:46:49;5.90;99.90
8947;DHT22;4508;48.790;9.028;2023-01-10T11:49:25;5.80;99.90
8947;DHT22;4508;48.790;9.028;2023-01-10T11:51:57;5.70;99.90
8947;DHT22;4508;48.790;9.028;2023-01-10T11:54:26;6.00;99.90
8947;DHT22;4508;48.790;9.028;2023-01-10T11:56:55;6.00;99.90
8947;DHT22;4508;48.790;9.028;2023-01-10T11:59:23;7.10;99.90
8947;DHT22;4508;48.790;9.028;2023-01-10T12:01:57;8.80;99.90
8947;DHT22;4508;48.790;9.028;2023-01-10T12:04:27;10.10;99.90
8947;DHT22;4508;48.790;9.028;2023-01-10T12:06:58;10.90;99.90
8947;DHT22;4508;48.790;9.028;2023-01-10T12:09:32;10.60;99.90
8947;DHT22;4508;48.790;9.028;2023-01-10T12:12:01;10.60;99.90
8947;DHT22;4508;48.790;9.028;2023-01-10T12:14:28;10.40;99.90
8947;DHT22;4508;48.790;9.028;2023-01-10T12:16:58;9.30;99.90
8947;DHT22;4508;48.790;9.028;2023-01-10T12:19:26;9.70;99.90
8947;DHT22;4508;48.790;9.028;2023-01-10T12:21:56;11.00;99.90
8947;DHT22;4508;48.790;9.028;2023-01-10T12:24:28;11.80;99.90
8947;DHT22;4508;48.790;9.028;2023-01-10T12:26:56;12.80;99.90
8947;DHT22;4508;48.790;9.028;2023-01-10T12:29:25;10.10;99.90
8947;DHT22;4508;48.790;9.028;2023-01-10T12:31:54;10.70;99.90
8947;DHT22;4508;48.790;9.028;2023-01-10T12:34:25;9.40;99.90
8947;DHT22;4508;48.790;9.028;2023-01-10T12:37:00;8.90;99.90
8947;DHT22;4508;48.790;9.028;2023-01-10T12:39:32;8.90;99.90
8947;DHT22;4508;48.790;9.028;2023-01-10T12:42:09;9.00;99.90
8947;DHT22;4508;48.790;9.028;2023-01-10T12:45:02;8.60;99.90
8947;DHT22;4508;48.790;9.028;2023-01-10T12:47:32;8.30;99.90
8947;DHT22;4508;48.790;9.028;2023-01-10T12:50:02;8.00;99.90
8947;DHT22;4508;48.790;9.028;2023-01-10T12:52:36;8.50;99.90
8947;DHT22;4508;48.790;9.028;2023-01-10T12:55:12;9.20;99.90
8947;DHT22;4508;48.790;9.028;2023-01-10T12:57:40;9.60;99.90
8947;DHT22;4508;48.790;9.028;2023-01-10T13:00:16;9.90;99.90
8947;DHT22;4508;48.790;9.028;2023-01-10T13:02:46;10.10;99.90
8947;DHT22;4508;48.790;9.028;2023-01-10T13:05:17;8.60;99.90
8947;DHT22;4508;48.790;9.028;2023-01-10T13:07:46;8.10;99.90
8947;DHT22;4508;48.790;9.028;2023-01-10T13:10:15;7.80;99.90
8947;DHT22;4508;48.790;9.028;2023-01-10T13:12:46;7.50;99.90
8947;DHT22;4508;48.790;9.028;2023-01-10T13:15:20;8.40;99.90
8947;DHT22;4508;48.790;9.028;2023-01-10T13:17:51;9.20;99.90
8947;DHT22;4508;48.790;9.028;2023-01-10T13:20:36;9.50;99.90
8947;DHT22;4508;48.790;9.028;2023-01-10T13:23:21;8.90;99.90
8947;DHT22;4508;48.790;9.028;2023-01-10T13:25:56;8.70;99.90
8947;DHT22;4508;48.790;9.028;2023-01-10T13:28:25;8.10;99.90
8947;DHT22;4508;48.790;9.028;2023-01-10T13:30:54;7.60;99.90
8947;DHT22;4508;48.790;9.028;2023-01-10T13:33:22;8.10;99.90
8947;DHT22;4508;48.790;9.028;2023-01-10T13:35:52;8.00;99.90
8947;DHT22;4508;48.790;9.028;2023-01-10T13:38:22;8.50;99.90
8947;DHT22;4508;48.790;9.028;2023-01-10T13:40:59;8.80;99.90
8947;DHT22;4508;48.790;9.028;2023-01-10T13:46:47;9.20;99.90
8947;DHT22;4508;48.790;9.028;2023-01-10T13:49:44;9.40;99.90
8947;DHT22;4508;48.790;9.028;2023-01-10T13:52:29;8.80;99.90
8947;DHT22;4508;48.790;9.028;2023-01-10T13:54:59;8.70;99.90
8947;DHT22;4508;48.790;9.028;2023-01-10T13:57:51;9.00;99.90
8947;DHT22;4508;48.790;9.028;2023-01-10T14:00:27;8.20;99.90
8947;DHT22;4508;48.790;9.028;2023-01-10T14:03:38;8.30;99.90
8947;DHT22;4508;48.790;9.028;2023-01-10T14:06:11;8.00;99.90
8947;DHT22;4508;48.790;9.028;2023-01-10T14:08:39;8.60;99.90
8947;DHT22;4508;48.790;9.028;2023-01-10T14:11:09;9.20;99.90
8947;DHT22;4508;48.790;9.028;2023-01-10T14:13:37;9.30;99.90
8947;DHT22;4508;48.790;9.028;2023-01-10T14:16:04;8.70;99.90
8947;DHT22;4508;48.790;9.028;2023-01-10T14:18:35;7.90;99.90
8947;DHT22;4508;48.790;9.028;2023-01-10T14:21:05;7.90;99.90
8947;DHT22;4508;48.790;9.028;2023-01-10T14:23:35;8.00;99.90
8947;DHT22;4508;48.790;9.028;2023-01-10T14:26:03;7.50;99.90
8947;DHT22;4508;48.790;9.028;2023-01-10T14:28:33;7.30;99.90
8947;DHT22;4508;48.790;9.028;2023-01-10T14:31:03;7.30;99.90
8947;DHT22;4508;48.790;9.028;2023-01-10T14:33:32;6.80;99.90
8947;DHT22;4508;48.790;9.028;2023-01-10T14:36:02;6.70;99.90
8947;DHT22;4508;48.790;9.028;2023-01-10T14:38:32;6.60;99.90
8947;DHT22;4508;48.790;9.028;2023-01-10T14:41:01;6.20;99.90
8947;DHT22;4508;48.790;9.028;2023-01-10T14:43:36;6.10;99.90
8947;DHT22;4508;48.790;9.028;2023-01-10T14:46:09;6.10;99.90
8947;DHT22;4508;48.790;9.028;2023-01-10T14:48:40;6.10;99.90
8947;DHT22;4508;48.790;9.028;2023-01-10T14:51:17;6.10;99.90
8947;DHT22;4508;48.790;9.028;2023-01-10T14:53:46;5.90;99.90
8947;DHT22;4508;48.790;9.028;2023-01-10T14:56:21;5.70;99.90
8947;DHT22;4508;48.790;9.028;2023-01-10T14:58:49;5.80;99.90
8947;DHT22;4508;48.790;9.028;2023-01-10T15:01:24;5.60;99.90
8947;DHT22;4508;48.790;9.028;2023-01-10T15:03:52;5.60;99.90
8947;DHT22;4508;48.790;9.028;2023-01-10T15:06:19;5.60;99.90
8947;DHT22;4508;48.790;9.028;2023-01-10T15:08:54;5.50;99.90
8947;DHT22;4508;48.790;9.028;2023-01-10T15:11:21;5.40;99.90
8947;DHT22;4508;48.790;9.028;2023-01-10T15:13:51;5.40;99.90
8947;DHT22;4508;48.790;9.028;2023-01-10T15:16:20;5.30;99.90
8947;DHT22;4508;48.790;9.028;2023-01-10T15:18:49;5.30;99.90
8947;DHT22;4508;48.790;9.028;2023-01-10T15:21:17;5.20;99.90
8947;DHT22;4508;48.790;9.028;2023-01-10T15:23:46;5.20;99.90
8947;DHT22;4508;48.790;9.028;2023-01-10T15:26:16;5.20;99.90
8947;DHT22;4508;48.790;9.028;2023-01-10T15:28:45;5.20;99.90
8947;DHT22;4508;48.790;9.028;2023-01-10T15:31:15;5.00;99.90
8947;DHT22;4508;48.790;9.028;2023-01-10T15:33:44;5.00;99.90
8947;DHT22;4508;48.790;9.028;2023-01-10T15:36:24;4.90;99.90
8947;DHT22;4508;48.790;9.028;2023-01-10T15:38:52;4.90;99.90
8947;DHT22;4508;48.790;9.028;2023-01-10T15:41:21;5.00;99.90
8947;DHT22;4508;48.790;9.028;2023-01-10T15:43:48;4.90;99.90
8947;DHT22;4508;48.790;9.028;2023-01-10T15:46:21;4.80;99.90
8947;DHT22;4508;48.790;9.028;2023-01-10T15:48:56;4.80;99.90
8947;DHT22;4508;48.790;9.028;2023-01-10T15:51:26;4.80;99.90
8947;DHT22;4508;48.790;9.028;2023-01-10T15:53:55;4.70;99.90
8947;DHT22;4508;48.790;9.028;2023-01-10T15:56:30;4.70;99.90
8947;DHT22;4508;48.790;9.028;2023-01-10T15:58:58;4.70;99.90
8947;DHT22;4508;48.790;9.028;2023-01-10T16:01:26;4.70;99.90
8947;DHT22;4508;48.790;9.028;2023-01-10T16:03:55;4.60;99.90
8947;DHT22;4508;48.790;9.028;2023-01-10T16:06:24;4.60;99.90
8947;DHT22;4508;48.790;9.028;2023-01-10T16:08:53;4.50;99.90
8947;DHT22;4508;48.790;9.028;2023-01-10T16:11:23;4.40;99.90
8947;DHT22;4508;48.790;9.028;2023-01-10T16:14:09;4.50;99.90
8947;DHT22;4508;48.790;9.028;2023-01-10T16:16:37;4.40;99.90
8947;DHT22;4508;48.790;9.028;2023-01-10T16:19:04;4.30;99.90
8947;DHT22;4508;48.790;9.028;2023-01-10T16:21:37;4.40;99.90
8947;DHT22;4508;48.790;9.028;2023-01-10T16:24:05;4.30;99.90
8947;DHT22;4508;48.790;9.028;2023-01-10T16:26:33;4.30;99.90
8947;DHT22;4508;48.790;9.028;2023-01-10T16:28:59;4.30;99.90
8947;DHT22;4508;48.790;9.028;2023-01-10T16:31:26;4.30;99.90
8947;DHT22;4508;48.790;9.028;2023-01-10T16:33:54;4.30;99.90
8947;DHT22;4508;48.790;9.028;2023-01-10T16:36:21;4.30;99.90
8947;DHT22;4508;48.790;9.028;2023-01-10T16:38:47;4.30;99.90
8947;DHT22;4508;48.790;9.028;2023-01-10T16:41:14;4.30;99.90
8947;DHT22;4508;48.790;9.028;2023-01-10T16:43:59;4.30;99.90
8947;DHT22;4508;48.790;9.028;2023-01-10T16:46:26;4.30;99.90